Aviation Digital Data Service (ADDS)

Output produced by METARs form (1648 UTC 08 February 2016)
found at http://aviationweather.gov/adds/metars/
 
KDAG 081550Z AUTO 23003KT 10SM CLR 09/M05 A3039 RMK AO2 SLP285 T00891050
KDAG 081120Z 0812/0912 VRB05KT P6SM SKC 
     FM081900 08008KT P6SM SKC 
     FM090200 VRB05KT P6SM SKC
       
KEDW 081558Z 33003KT 90SM CLR 09/M05 A3037 RMK AO2A SLP283 T00921051
TAF KEDW 081000Z 0810/0916 VRB06KT 9999 SKC QNH3031INS 
     BECMG 0817/0818 06012KT 9999 SKC QNH3025INS 
     TEMPO 0820/0901 06012G18KT 
     BECMG 0901/0902 VRB06KT 9999 SKC QNH3026INS TX18/0821Z TN03/0814Z
       
KVCV 081635Z AUTO 00000KT 10SM CLR 12/M06 A3040 RMK AO2
KONT 081553Z 05012G23KT 10SM VCBLDU CLR 24/M08 A3015 RMK AO2 PK WND 07030/1502 SLP195 T02391078
KONT 081127Z 0812/0918 05018G30KT P6SM SKC 
     FM082100 03010G18KT P6SM SKC 
     FM090100 05006KT P6SM SKC
       
KSNA 081553Z 03010KT 10SM CLR 23/M04 A3011 RMK AO2 SLP196 T02331039
KSNA 081127Z 0812/0912 06006KT P6SM SKC WS020/05030KT 
     FM081500 05010G18KT P6SM SKC 
     FM082100 01008KT P6SM SKC 
     FM090100 06005KT P6SM SKC
       
KSAN 081551Z 00000KT 10SM CLR 16/M01 A3012 RMK AO2 SLP198 T01611006
KSAN 081456Z 0815/0918 00000KT P6SM FEW200 
     FM082000 31009KT P6SM SKC 
     FM090200 VRB04KT P6SM SKC
       
KNID 081556Z 27003KT 10SM CLR 08/M03 A3039 RMK AO2 SLP292 T00781028 $
TAF KNID 0815/0915 21007KT 9999 SKC 520109 521005 QNH3033INS WSCONDS WND VRB06KT AFT 0816 
     BECMG 0818/0820 10009KT 9999 SKC 520009 520906 QNH3026INS WND 050V140 
     TEMPO 0821/0902 10014G22KT 
     BECMG 0902/0904 21007KT 9999 SKC 520104 QNH3032INS T24/0822Z T04/0914Z
       
KNXP 081556Z AUTO 30011KT 10SM CLR 13/M06 A3044 RMK AO2 SLP286 T01331061 $
TAF KNXP 0815/0915 31010KT 9999 FEW250 QNH3031INS T23/0822Z T10/0914Z
       
KPSP 081553Z 31007KT 10SM CLR 21/M06 A3028 RMK AO2 SLP253 T02111056
KPSP 081127Z 0812/0912 32009KT P6SM SKC 
     FM081900 01009KT P6SM SKC 
     FM090100 32008KT P6SM SKC
       
KLAX 081553Z 00000KT 10SM CLR 19/M02 A3013 RMK AO2 SLP201 T01891017
KLAX 081453Z 0815/0918 09007KT P6SM SKC 
     FM081700 VRB03KT P6SM SKC 
     FM082100 27009KT P6SM SKC 
     FM090300 VRB05KT P6SM SKC
       
KCNO 081553Z 09012KT 10SM CLR 24/M06 A3017 RMK AO2 SLP210 T02391061
KSMO 081551Z AUTO 08004KT 10SM CLR 18/00 A3013 RMK AO2 SLP202 T01830000 $
KLGB 081553Z 31003KT 10SM CLR 14/03 A3013 RMK AO2 SLP202 T01440028
KLGB 081132Z 0812/0912 VRB05KT P6SM SKC WS020/02030KT 
     FM081600 04006KT P6SM SKC 
     FM090300 VRB05KT P6SM SKC
       
KVNY 081551Z 01015G22KT 10SM CLR 23/M05 A3015 RMK AO2 SLP202 T02281050
KVNY 081323Z 0813/0912 01012G22KT P6SM SKC WS020/04040KT 
     FM082000 02020G30KT P6SM SKC 
     FM090400 02014KT P6SM SKC 
     FM091000 36007KT P6SM SKC
       
KBUR 081553Z 00000KT 10SM CLR 18/M03 A3014 RMK AO2 SLP194 T01831033 $
KBUR 081132Z 0812/0912 VRB05KT P6SM SKC WS020/02030KT 
     FM082100 03007KT P6SM SKC 
     FM090300 VRB05KT P6SM SKC
       
KBFL 081554Z 27003KT 4SM HZ CLR 08/05 A3024 RMK AO2 SLP240 T00830050
KBFL 081416Z 0814/0912 VRB04KT P6SM SKC 
     TEMPO 0814/0818 5SM HZ 
     FM090600 VRB03KT 3SM BR SKC
       
KPMD 081553Z AUTO 33004KT 10SM CLR 07/M03 A3038 RMK AO2 SLP287 T00721028
KPMD 081132Z 0812/0912 09007KT P6SM SKC WS015/04040KT 
     FM081800 06015G25KT P6SM SKC 
     FM090300 05012KT P6SM SKC 
     FM090800 VRB05KT P6SM SKC
       
KOXR 081551Z 06020G32KT 10SM CLR 23/M04 A3013 RMK AO2 PK WND 07034/1523 SLP203 T02331044 $
KOXR 081132Z 0812/0912 07017G27KT P6SM SKC WS020/04045KT 
     FM081600 08020G30KT P6SM SKC 
     FM082000 07015G25KT P6SM SKC 
     FM090400 06014KT P6SM SKC
       
KWJF 081556Z AUTO 36003KT 10SM CLR 06/M03 A3039 RMK AO2 SLP298 T00561028 TSNO
KWJF 081132Z 0812/0912 VRB05KT P6SM SKC WS015/04040KT 
     FM081800 05015G25KT P6SM SKC 
     FM090400 05010KT P6SM SKC 
     FM090800 VRB05KT P6SM SKC
       
KCMA 081555Z 07019G27KT 10SM CLR 23/M05 A3015 RMK AO2 PK WND 08031/1541 SLP217 T02281050 $
KFAT 081553Z 03004KT 4SM BR CLR 08/06 A3027 RMK AO2 SLP250 T00780061
KFAT 081450Z 0815/0912 00000KT 5SM BR SKC 
     TEMPO 0815/0817 3SM BR 
     FM081800 VRB03KT 5SM HZ SKC 
     FM082100 VRB03KT P6SM SKC 
     FM090800 00000KT 4SM BR SKC
       
KEED 081556Z AUTO 01018G22KT 10SM CLR 16/M04 A3034 RMK AO2 SLP255 T01611044
KEED 081120Z 0812/0912 36018G25KT P6SM SKC 
     FM081600 01023G33KT P6SM SKC 
     FM090300 35015G22KT P6SM SKC 
     FM090800 33012KT P6SM SKC
       
KLSV 081558Z AUTO 33004KT 10SM CLR 10/M03 A3046 RMK AO2 SLP311 T01031031 $
TAF KLSV 080900Z 0809/0915 32009KT 9999 SKC QNH3036INS 
     BECMG 0817/0818 02009KT 9999 SKC QNH3026INS 
     BECMG 0900/0901 VRB06KT 9999 SKC QNH3028INS TX22/0821Z TN04/0812Z
       
KLAS 081556Z 02008KT 10SM CLR 11/M04 A3043 RMK AO2 SLP301 T01111044
KLAS 081632Z 0817/0912 01010KT P6SM SKC 
     FM082000 04012KT P6SM SKC 
     FM090300 VRB06KT P6SM SKC 
     FM090800 20006KT P6SM SKC
       
KHII 081635Z AUTO 32015G18KT 10SM CLR 16/M05 A3031 RMK AO2
KIFP 081635Z AUTO 01029G34KT 10SM CLR 16/M04 A3034 RMK AO2
KIFP 081120Z 0812/0912 02028G38KT P6SM SKC 
     FM090100 36022G32KT P6SM SKC